createdAt,value
2018-11-29T00:01:12.963Z,12.83
2018-11-29T00:03:43.664Z,12.23
2018-11-29T00:06:13.944Z,13.00
2018-11-29T00:08:44.643Z,11.73
2018-11-29T00:11:14.904Z,12.03
2018-11-29T00:13:45.284Z,11.50
2018-11-29T00:16:16.265Z,11.07
2018-11-29T00:18:46.405Z,11.57
2018-11-29T00:21:16.485Z,11.33
2018-11-29T00:23:50.724Z,11.60
2018-11-29T00:26:21.104Z,11.63
2018-11-29T00:28:51.705Z,11.23
2018-11-29T00:31:21.843Z,12.17
2018-11-29T00:33:51.748Z,11.80
2018-11-29T00:36:22.764Z,12.43
2018-11-29T00:38:53.146Z,12.20
2018-11-29T00:41:23.226Z,13.13
2018-11-29T00:43:53.607Z,13.63
2018-11-29T00:46:23.966Z,13.57
2018-11-29T00:48:54.406Z,14.07
2018-11-29T00:51:24.884Z,14.70
2018-11-29T00:53:54.805Z,12.57
2018-11-29T00:56:25.708Z,13.70
2018-11-29T00:58:56.424Z,14.77
2018-11-29T01:01:26.809Z,15.07
2018-11-29T01:03:57.132Z,14.63
2018-11-29T01:06:27.505Z,15.10
2018-11-29T01:08:57.464Z,15.43
2018-11-29T01:11:27.685Z,14.67
2018-11-29T01:13:58.025Z,15.03
2018-11-29T01:16:28.463Z,14.80
2018-11-29T01:18:58.945Z,13.13
2018-11-29T01:21:29.522Z,13.07
2018-11-29T01:23:59.679Z,13.23
2018-11-29T01:26:29.922Z,12.60
2018-11-29T01:29:00.480Z,12.60
2018-11-29T01:31:30.560Z,12.27
2018-11-29T01:34:01.580Z,12.97
2018-11-29T01:36:32.320Z,12.37
2018-11-29T01:39:02.760Z,11.60
2018-11-29T01:41:32.780Z,11.73
2018-11-29T01:44:02.820Z,11.03
2018-11-29T01:46:33.240Z,11.50
2018-11-29T01:49:03.680Z,10.83
2018-11-29T01:51:34.060Z,11.90
2018-11-29T01:54:04.500Z,12.67
2018-11-29T01:56:34.640Z,12.93
2018-11-29T01:59:04.841Z,13.37
2018-11-29T02:01:35.463Z,12.77
2018-11-29T02:04:07.363Z,13.47
2018-11-29T02:06:38.080Z,13.07
2018-11-29T02:09:10.463Z,12.43
2018-11-29T02:11:41.125Z,12.70
2018-11-29T02:14:11.481Z,12.20
2018-11-29T02:16:41.961Z,12.20
2018-11-29T02:19:12.341Z,14.90
2018-11-29T02:21:43.021Z,13.47
2018-11-29T02:24:13.701Z,13.03
2018-11-29T02:26:45.480Z,13.13
2018-11-29T02:29:15.521Z,13.70
2018-11-29T02:31:45.583Z,13.37
2018-11-29T02:34:16.021Z,13.40
2018-11-29T02:36:46.140Z,13.17
2018-11-29T02:39:16.801Z,13.07
2018-11-29T02:42:02.763Z,13.77
2018-11-29T02:44:32.787Z,12.87
2018-11-29T02:47:03.147Z,13.10
2018-11-29T02:49:33.444Z,13.33
2018-11-29T02:52:03.206Z,13.37
2018-11-29T02:54:33.266Z,13.03
2018-11-29T02:57:03.706Z,13.53
2018-11-29T02:59:34.265Z,13.37
2018-11-29T03:02:04.868Z,11.43
2018-11-29T03:04:34.868Z,12.30
2018-11-29T03:07:05.608Z,12.43
2018-11-29T03:09:35.715Z,12.43
2018-11-29T03:12:06.651Z,11.50
2018-11-29T03:14:37.207Z,12.17
2018-11-29T03:17:07.527Z,12.47
2018-11-29T03:19:37.627Z,13.10
2018-11-29T03:22:08.307Z,12.73
2018-11-29T03:24:38.447Z,12.77
2018-11-29T03:27:08.748Z,12.97
2018-11-29T03:29:39.012Z,13.47
2018-11-29T03:32:09.908Z,12.90
2018-11-29T03:34:41.306Z,13.40
2018-11-29T03:37:11.749Z,13.40
2018-11-29T03:39:42.347Z,12.40
2018-11-29T03:42:13.107Z,13.33
2018-11-29T03:44:43.448Z,13.17
2018-11-29T03:47:14.067Z,14.80
2018-11-29T03:49:44.327Z,14.10
2018-11-29T03:54:48.647Z,13.57
2018-11-29T03:57:18.787Z,13.50
2018-11-29T03:59:48.967Z,13.73
2018-11-29T04:02:19.185Z,13.67
2018-11-29T04:04:49.385Z,13.27
2018-11-29T04:07:20.004Z,12.53
2018-11-29T04:09:50.044Z,13.23
2018-11-29T04:12:20.546Z,12.57
2018-11-29T04:14:50.864Z,13.13
2018-11-29T04:17:21.295Z,13.07
2018-11-29T04:19:51.524Z,13.50
2018-11-29T04:22:21.966Z,13.97
2018-11-29T04:24:52.582Z,13.93
2018-11-29T04:27:23.523Z,13.77
2018-11-29T04:29:53.602Z,10.97
2018-11-29T04:32:24.072Z,9.57
2018-11-29T04:34:54.261Z,8.57
2018-11-29T04:37:25.202Z,10.70
2018-11-29T04:39:55.744Z,11.63
2018-11-29T04:42:25.922Z,11.80
2018-11-29T04:47:30.242Z,12.57
2018-11-29T04:50:01.261Z,12.03
2018-11-29T04:52:31.122Z,12.47
2018-11-29T04:55:01.182Z,11.60
2018-11-29T04:57:31.841Z,13.27
2018-11-29T05:00:02.121Z,12.90
2018-11-29T05:02:32.266Z,13.07
2018-11-29T05:05:02.285Z,11.93
2018-11-29T05:07:32.485Z,11.70
2018-11-29T05:10:02.629Z,12.93
2018-11-29T05:12:33.011Z,13.13
2018-11-29T05:15:03.228Z,8.77
2018-11-29T05:17:33.407Z,8.20
2018-11-29T05:20:04.882Z,8.10
2018-11-29T05:22:35.200Z,9.13
2018-11-29T05:25:05.626Z,8.60
2018-11-29T05:27:35.583Z,9.13
2018-11-29T05:30:07.740Z,9.57
2018-11-29T05:32:38.340Z,8.30
2018-11-29T05:35:10.264Z,9.50
2018-11-29T05:37:40.632Z,10.27
2018-11-29T05:40:14.080Z,10.43
2018-11-29T05:42:45.360Z,11.10
2018-11-29T05:45:15.819Z,10.40
2018-11-29T05:47:45.879Z,10.73
2018-11-29T05:50:16.022Z,11.00
2018-11-29T05:52:46.079Z,9.33
2018-11-29T05:55:16.799Z,11.10
2018-11-29T05:57:51.362Z,12.20
2018-11-29T06:00:21.087Z,13.03
2018-11-29T06:02:51.885Z,12.83
2018-11-29T06:07:58.044Z,12.07
2018-11-29T06:10:31.666Z,12.10
2018-11-29T06:13:02.262Z,13.00
2018-11-29T06:15:31.720Z,13.43
2018-11-29T06:18:18.592Z,13.33
2018-11-29T06:20:49.012Z,13.03
2018-11-29T06:23:19.200Z,13.40
2018-11-29T06:25:49.522Z,14.67
2018-11-29T06:28:20.765Z,15.03
2018-11-29T06:30:51.201Z,14.80
2018-11-29T06:33:21.584Z,13.20
2018-11-29T06:35:51.565Z,13.60
2018-11-29T06:38:21.622Z,13.93
2018-11-29T06:40:52.464Z,12.67
2018-11-29T06:43:22.562Z,13.67
2018-11-29T06:45:53.100Z,13.93
2018-11-29T06:48:23.861Z,13.87
2018-11-29T06:50:54.081Z,15.23
2018-11-29T06:53:29.700Z,15.30
2018-11-29T06:55:59.901Z,15.57
2018-11-29T06:58:29.802Z,14.93
2018-11-29T07:00:59.760Z,15.03
2018-11-29T07:03:29.920Z,14.73
2018-11-29T07:06:00.401Z,13.37
2018-11-29T07:08:30.720Z,13.37
2018-11-29T07:11:00.809Z,14.53
2018-11-29T07:13:31.201Z,14.50
2018-11-29T07:16:01.282Z,13.90
2018-11-29T07:18:31.760Z,12.80
2018-11-29T07:21:12.300Z,14.00
2018-11-29T07:23:42.404Z,14.53
2018-11-29T07:26:12.629Z,12.97
2018-11-29T07:28:42.761Z,14.33
2018-11-29T07:31:13.002Z,14.43
2018-11-29T07:33:43.321Z,14.13
2018-11-29T07:36:14.720Z,14.37
2018-11-29T07:38:45.300Z,15.30
2018-11-29T07:41:16.464Z,13.87
2018-11-29T07:43:46.481Z,14.83
2018-11-29T07:46:17.346Z,13.40
2018-11-29T07:48:47.363Z,15.67
2018-11-29T07:51:18.561Z,15.27
2018-11-29T07:53:53.922Z,14.83
2018-11-29T07:56:24.240Z,14.47
2018-11-29T07:58:54.488Z,14.90
2018-11-29T08:01:24.841Z,14.87
2018-11-29T08:03:55.180Z,16.40
2018-11-29T08:06:25.360Z,14.87
2018-11-29T08:08:55.741Z,15.13
2018-11-29T08:11:26.003Z,16.37
2018-11-29T08:13:56.441Z,16.53
2018-11-29T08:16:26.880Z,17.67
2018-11-29T08:18:57.328Z,17.53
2018-11-29T08:21:27.860Z,17.30
2018-11-29T08:23:58.361Z,18.87
2018-11-29T08:26:28.481Z,17.30
2018-11-29T08:28:59.203Z,17.40
2018-11-29T08:31:29.841Z,19.40
2018-11-29T08:33:59.927Z,18.87
2018-11-29T08:36:30.381Z,18.97
2018-11-29T08:39:00.741Z,19.93
2018-11-29T08:41:31.060Z,18.70
2018-11-29T08:44:01.280Z,18.97
2018-11-29T08:46:31.442Z,19.53
2018-11-29T08:49:01.869Z,20.13
2018-11-29T08:51:32.121Z,20.63
2018-11-29T08:54:02.409Z,20.77
2018-11-29T08:56:32.701Z,20.90
2018-11-29T08:59:02.821Z,20.87
2018-11-29T09:01:37.146Z,21.60
2018-11-29T09:04:07.984Z,19.50
2018-11-29T09:06:38.282Z,20.00
2018-11-29T09:09:12.426Z,22.87
2018-11-29T09:11:42.466Z,19.47
2018-11-29T09:14:12.424Z,20.63
2018-11-29T09:16:42.505Z,19.30
2018-11-29T09:19:12.505Z,21.10
2018-11-29T09:21:43.066Z,21.37
2018-11-29T09:24:13.187Z,20.60
2018-11-29T09:26:43.607Z,21.00
2018-11-29T09:29:13.842Z,20.47
2018-11-29T09:31:43.736Z,21.77
2018-11-29T09:34:13.628Z,19.77
2018-11-29T09:36:44.166Z,20.23
2018-11-29T09:39:14.670Z,20.57
2018-11-29T09:41:45.128Z,21.30
2018-11-29T09:44:15.046Z,19.97
2018-11-29T09:47:01.086Z,20.77
2018-11-29T09:49:31.865Z,20.00
2018-11-29T09:52:01.965Z,19.37
2018-11-29T09:54:32.025Z,18.07
2018-11-29T09:57:08.565Z,16.63
2018-11-29T09:59:38.786Z,15.03
2018-11-29T10:02:09.485Z,16.53
2018-11-29T10:04:39.360Z,12.83
2018-11-29T10:07:09.781Z,15.00
2018-11-29T10:09:39.700Z,16.90
2018-11-29T10:12:10.101Z,12.60
2018-11-29T10:14:40.017Z,12.40
2018-11-29T10:17:15.201Z,12.67
2018-11-29T10:19:45.320Z,14.63
2018-11-29T10:22:15.360Z,13.40
2018-11-29T10:24:45.441Z,10.63
2018-11-29T10:27:15.761Z,10.77
2018-11-29T10:29:46.062Z,10.60
2018-11-29T10:32:16.442Z,10.23
2018-11-29T10:34:46.281Z,9.80
2018-11-29T10:37:21.000Z,9.47
2018-11-29T10:39:51.320Z,9.10
2018-11-29T10:42:21.761Z,10.50
2018-11-29T10:44:51.919Z,9.97
2018-11-29T10:47:22.244Z,11.67
2018-11-29T10:49:52.641Z,10.97
2018-11-29T10:52:22.940Z,12.30
2018-11-29T10:54:53.183Z,12.00
2018-11-29T10:57:23.741Z,11.90
2018-11-29T10:59:54.380Z,12.67
2018-11-29T11:02:30.531Z,11.90
2018-11-29T11:05:00.547Z,12.60
2018-11-29T11:07:31.024Z,12.47
2018-11-29T11:10:01.225Z,12.50
2018-11-29T11:12:31.225Z,12.50
2018-11-29T11:15:01.626Z,13.53
2018-11-29T11:17:32.344Z,12.90
2018-11-29T11:20:02.660Z,12.90
2018-11-29T11:22:33.026Z,12.97
2018-11-29T11:25:03.462Z,12.03
2018-11-29T11:27:33.725Z,12.73
2018-11-29T11:30:04.724Z,13.60
2018-11-29T11:32:35.024Z,14.47
2018-11-29T11:35:04.776Z,13.63
2018-11-29T11:37:36.266Z,13.67
2018-11-29T11:40:06.706Z,14.20
2018-11-29T11:42:37.249Z,14.23
2018-11-29T11:45:13.866Z,13.83
2018-11-29T11:47:44.609Z,14.63
2018-11-29T11:50:24.309Z,13.73
2018-11-29T11:52:55.426Z,14.70
2018-11-29T11:55:29.907Z,13.30
2018-11-29T11:57:56.225Z,13.60
2018-11-29T12:00:31.936Z,13.80
2018-11-29T12:03:10.008Z,15.73
2018-11-29T12:05:40.169Z,13.93
2018-11-29T12:08:10.250Z,13.83
2018-11-29T12:10:41.688Z,13.73
2018-11-29T12:13:12.096Z,14.93
2018-11-29T12:15:43.007Z,13.80
2018-11-29T12:18:14.728Z,15.07
2018-11-29T12:20:44.807Z,14.47
2018-11-29T12:23:15.128Z,15.27
2018-11-29T12:25:45.567Z,14.97
2018-11-29T12:28:16.427Z,14.70
2018-11-29T12:30:48.787Z,15.23
2018-11-29T12:33:18.867Z,15.13
2018-11-29T12:35:49.248Z,15.27
2018-11-29T12:38:19.207Z,14.53
2018-11-29T12:40:49.286Z,14.67
2018-11-29T12:43:20.007Z,14.60
2018-11-29T12:45:50.406Z,15.40
2018-11-29T12:48:20.707Z,15.33
2018-11-29T12:50:51.207Z,15.37
2018-11-29T12:53:21.191Z,15.37
2018-11-29T12:55:52.008Z,15.07
2018-11-29T12:58:26.227Z,14.30
2018-11-29T13:00:56.631Z,16.73
2018-11-29T13:03:31.285Z,15.90
2018-11-29T13:06:01.483Z,16.67
2018-11-29T13:08:31.740Z,14.77
2018-11-29T13:11:02.360Z,15.37
2018-11-29T13:13:32.559Z,15.97
2018-11-29T13:16:02.902Z,14.83
2018-11-29T13:18:32.800Z,15.07
2018-11-29T13:21:03.584Z,14.67
2018-11-29T13:23:33.761Z,13.83
2018-11-29T13:26:03.819Z,13.83
2018-11-29T13:28:34.022Z,15.23
2018-11-29T13:31:04.320Z,14.63
2018-11-29T13:33:34.541Z,15.67
2018-11-29T13:36:04.682Z,15.27
2018-11-29T13:38:34.928Z,14.17
2018-11-29T13:41:05.121Z,15.40
2018-11-29T13:43:35.360Z,15.97
2018-11-29T13:46:06.001Z,16.10
2018-11-29T13:48:35.841Z,17.20
2018-11-29T13:51:06.222Z,17.43
2018-11-29T13:53:36.537Z,16.60
2018-11-29T13:56:08.641Z,16.47
2018-11-29T13:58:42.901Z,16.27
2018-11-29T14:01:13.284Z,16.80
2018-11-29T14:03:43.102Z,17.13
2018-11-29T14:06:13.361Z,17.17
2018-11-29T14:08:43.581Z,16.77
2018-11-29T14:11:14.202Z,16.40
2018-11-29T14:13:44.645Z,16.30
2018-11-29T14:16:15.321Z,16.63
2018-11-29T14:18:45.803Z,17.07
2018-11-29T14:21:16.123Z,16.03
2018-11-29T14:23:46.802Z,16.87
2018-11-29T14:26:17.942Z,16.47
2018-11-29T14:28:48.322Z,16.10
2018-11-29T14:31:18.285Z,16.70
2018-11-29T14:33:48.802Z,16.60
2018-11-29T14:36:18.944Z,16.83
2018-11-29T14:38:49.124Z,16.27
2018-11-29T14:41:22.636Z,16.97
2018-11-29T14:43:54.698Z,15.27
2018-11-29T14:46:24.652Z,16.83
2018-11-29T14:48:54.431Z,16.03
2018-11-29T14:51:24.112Z,15.57
2018-11-29T14:53:53.852Z,16.50
2018-11-29T14:56:23.441Z,16.30
2018-11-29T14:58:53.044Z,14.70
2018-11-29T15:01:22.771Z,15.10
2018-11-29T15:03:52.845Z,15.20
2018-11-29T15:06:22.463Z,13.87
2018-11-29T15:08:52.288Z,13.60
2018-11-29T15:11:23.088Z,13.53
2018-11-29T15:13:53.328Z,13.63
2018-11-29T15:16:23.309Z,12.87
2018-11-29T15:18:53.977Z,14.40
2018-11-29T15:21:24.488Z,14.83
2018-11-29T15:23:54.629Z,14.30
2018-11-29T15:26:24.950Z,14.10
2018-11-29T15:28:55.381Z,13.60
2018-11-29T15:31:25.361Z,15.93
2018-11-29T15:33:56.680Z,15.30
2018-11-29T15:36:28.800Z,15.23
2018-11-29T15:38:58.923Z,14.23
2018-11-29T15:41:29.270Z,17.27
2018-11-29T15:43:59.601Z,16.37
2018-11-29T15:46:30.122Z,16.50
2018-11-29T15:49:00.488Z,15.97
2018-11-29T15:51:30.880Z,14.30
2018-11-29T15:54:01.201Z,14.93
2018-11-29T15:56:31.539Z,15.43
2018-11-29T15:59:01.760Z,15.83
2018-11-29T16:01:32.437Z,18.13
2018-11-29T16:04:02.408Z,18.30
2018-11-29T16:06:32.526Z,18.07
2018-11-29T16:09:03.370Z,17.93
2018-11-29T16:11:33.409Z,17.50
2018-11-29T16:14:03.564Z,19.00
2018-11-29T16:19:08.987Z,20.63
2018-11-29T16:21:39.170Z,20.93
2018-11-29T16:24:09.568Z,21.73
2018-11-29T16:26:39.707Z,21.93
2018-11-29T16:29:10.089Z,22.07
2018-11-29T16:31:39.871Z,23.37
2018-11-29T16:34:13.716Z,23.60
2018-11-29T16:36:43.886Z,25.60
2018-11-29T16:39:14.088Z,26.23
2018-11-29T16:41:44.664Z,25.23
2018-11-29T16:44:14.859Z,25.13
2018-11-29T16:46:45.246Z,28.17
2018-11-29T16:49:15.612Z,26.63
2018-11-29T16:51:45.962Z,28.33
2018-11-29T16:54:15.884Z,28.13
2018-11-29T16:56:46.122Z,32.93
2018-11-29T16:59:16.230Z,27.53
2018-11-29T17:01:46.330Z,28.87
2018-11-29T17:04:16.206Z,29.00
2018-11-29T17:06:46.863Z,27.77
2018-11-29T17:09:17.485Z,29.03
2018-11-29T17:11:48.243Z,27.17
2018-11-29T17:14:18.563Z,28.20
2018-11-29T17:16:48.728Z,29.50
2018-11-29T17:19:20.039Z,28.27
2018-11-29T17:21:50.425Z,27.63
2018-11-29T17:24:21.104Z,29.13
2018-11-29T17:26:50.963Z,29.57
2018-11-29T17:29:21.403Z,29.97
2018-11-29T17:31:51.463Z,29.37
2018-11-29T17:34:21.449Z,28.73
2018-11-29T17:36:51.526Z,29.17
2018-11-29T17:39:21.692Z,30.07
2018-11-29T17:41:53.465Z,29.70
2018-11-29T17:44:23.477Z,31.37
2018-11-29T17:46:54.405Z,30.23
2018-11-29T17:49:25.155Z,32.40
2018-11-29T17:51:58.288Z,31.07
2018-11-29T17:54:28.783Z,30.73
2018-11-29T17:57:00.900Z,28.27
2018-11-29T17:59:31.526Z,31.53
2018-11-29T18:02:01.663Z,29.87
2018-11-29T18:04:36.264Z,27.63
2018-11-29T18:07:06.589Z,31.57
2018-11-29T18:09:36.541Z,30.00
2018-11-29T18:12:10.519Z,29.37
2018-11-29T18:14:41.446Z,29.57
2018-11-29T18:17:11.191Z,28.30
2018-11-29T18:19:41.342Z,29.87
2018-11-29T18:22:11.462Z,27.43
2018-11-29T18:24:41.633Z,27.93
2018-11-29T18:27:11.694Z,27.80
2018-11-29T18:29:41.747Z,27.20
2018-11-29T18:32:12.044Z,25.53
2018-11-29T18:34:42.861Z,27.87
2018-11-29T18:37:13.274Z,26.23
2018-11-29T18:39:49.390Z,26.30
2018-11-29T18:42:19.284Z,27.13
2018-11-29T18:44:49.886Z,24.63
2018-11-29T18:47:20.086Z,26.50
2018-11-29T18:49:50.408Z,24.53
2018-11-29T18:52:22.763Z,25.40
2018-11-29T18:54:53.122Z,25.30
2018-11-29T18:57:23.190Z,26.73
2018-11-29T18:59:55.097Z,25.50
2018-11-29T19:02:26.065Z,25.33
2018-11-29T19:04:58.192Z,24.93
2018-11-29T19:07:30.475Z,25.53
2018-11-29T19:10:00.734Z,23.50
2018-11-29T19:12:31.355Z,26.63
2018-11-29T19:15:05.848Z,25.73
2018-11-29T19:17:36.283Z,24.80
2018-11-29T19:20:08.238Z,24.23
2018-11-29T19:22:39.888Z,24.20
2018-11-29T19:25:12.306Z,26.20
2018-11-29T19:27:43.042Z,24.27
2018-11-29T19:30:25.319Z,23.70
2018-11-29T19:33:08.752Z,22.70
2018-11-29T19:35:39.931Z,22.03
2018-11-29T19:38:17.947Z,21.93
2018-11-29T19:40:51.071Z,23.43
2018-11-29T19:43:21.563Z,19.40
2018-11-29T19:45:52.324Z,19.57
2018-11-29T19:48:23.548Z,19.87
2018-11-29T19:50:58.606Z,18.93
2018-11-29T19:53:33.691Z,19.53
2018-11-29T19:56:05.543Z,19.00
2018-11-29T19:58:35.625Z,18.40
2018-11-29T20:01:06.281Z,16.87
2018-11-29T20:03:36.971Z,19.67
2018-11-29T20:06:10.072Z,16.23
2018-11-29T20:08:42.184Z,16.87
2018-11-29T20:11:14.143Z,15.43
2018-11-29T20:13:44.626Z,16.23
2018-11-29T20:16:15.803Z,17.13
2018-11-29T20:18:46.851Z,16.70
2018-11-29T20:21:30.389Z,18.40
2018-11-29T20:24:01.946Z,18.23
2018-11-29T20:26:32.315Z,20.57
2018-11-29T20:29:03.665Z,18.80
2018-11-29T20:31:35.522Z,17.90
2018-11-29T20:34:06.083Z,17.23
2018-11-29T20:36:42.383Z,19.20
2018-11-29T20:39:13.282Z,16.73
2018-11-29T20:41:43.643Z,17.57
2018-11-29T20:44:13.817Z,17.83
2018-11-29T20:46:44.302Z,17.73
2018-11-29T20:49:15.243Z,18.17
2018-11-29T20:51:45.699Z,19.10
2018-11-29T20:54:16.643Z,18.93
2018-11-29T20:56:47.362Z,19.70
2018-11-29T21:01:51.870Z,18.00
2018-11-29T21:04:22.499Z,19.70
2018-11-29T21:06:52.701Z,17.87
2018-11-29T21:09:23.562Z,19.03
2018-11-29T21:11:54.146Z,22.30
2018-11-29T21:14:28.512Z,22.60
2018-11-29T21:16:58.606Z,18.63
2018-11-29T21:19:29.085Z,22.53
2018-11-29T21:21:59.585Z,18.87
2018-11-29T21:24:29.784Z,19.90
2018-11-29T21:27:04.884Z,19.23
2018-11-29T21:29:35.369Z,20.13
2018-11-29T21:32:05.444Z,18.50
2018-11-29T21:34:35.367Z,18.70
2018-11-29T21:37:05.670Z,19.07
2018-11-29T21:39:36.569Z,19.47
2018-11-29T21:42:07.389Z,19.07
2018-11-29T21:44:41.927Z,17.87
2018-11-29T21:47:12.326Z,18.83
2018-11-29T21:49:42.608Z,20.00
2018-11-29T21:52:13.427Z,17.57
2018-11-29T21:54:43.607Z,19.30
2018-11-29T21:57:17.448Z,18.50
2018-11-29T21:59:48.169Z,16.90
2018-11-29T22:02:18.544Z,19.33
2018-11-29T22:04:48.944Z,19.43
2018-11-29T22:07:19.364Z,18.77
2018-11-29T22:09:53.983Z,17.47
2018-11-29T22:12:24.963Z,17.73
2018-11-29T22:14:55.048Z,18.80
2018-11-29T22:17:25.763Z,19.50
2018-11-29T22:19:56.164Z,19.00
2018-11-29T22:22:28.389Z,18.63
2018-11-29T22:24:56.283Z,18.93
2018-11-29T22:27:26.524Z,17.73
2018-11-29T22:29:56.802Z,19.87
2018-11-29T22:32:27.183Z,20.27
2018-11-29T22:34:57.925Z,18.70
2018-11-29T22:37:28.664Z,18.10
2018-11-29T22:39:59.103Z,19.27
2018-11-29T22:42:29.503Z,19.30
2018-11-29T22:45:00.444Z,18.60
2018-11-29T22:47:30.883Z,18.53
2018-11-29T22:50:01.319Z,18.93
2018-11-29T22:52:32.019Z,17.77
2018-11-29T22:55:07.315Z,17.97
2018-11-29T22:57:37.410Z,19.63
2018-11-29T23:02:45.565Z,18.30
2018-11-29T23:05:20.325Z,18.97
2018-11-29T23:07:54.724Z,19.03
2018-11-29T23:10:25.164Z,19.60
2018-11-29T23:12:55.723Z,20.33
2018-11-29T23:15:26.383Z,19.13
2018-11-29T23:17:56.503Z,19.23
2018-11-29T23:20:31.204Z,19.93
2018-11-29T23:23:01.803Z,19.00
2018-11-29T23:25:36.462Z,19.47
2018-11-29T23:28:08.001Z,19.70
2018-11-29T23:30:38.400Z,20.17
2018-11-29T23:33:08.480Z,19.93
2018-11-29T23:35:38.880Z,19.50
2018-11-29T23:38:10.522Z,21.13
2018-11-29T23:40:41.159Z,20.90
2018-11-29T23:43:11.683Z,20.33
2018-11-29T23:45:46.239Z,20.10
2018-11-29T23:48:16.320Z,20.33
2018-11-29T23:50:46.721Z,20.50
2018-11-29T23:53:16.681Z,19.37
2018-11-29T23:55:46.879Z,20.03
2018-11-29T23:58:17.549Z,19.90
